Hatsu Envoy — VSQL9 — position and weather

sailwx.info

Track history (hours):
 
Tides and Currents Weather Stations Pressure Air Temp Water Temp Dewpoint Dewpoint Depression Visibility Wind Speed Wind Dir Waves Ship Positions

Hatsu Envoy

Last reported at 2017-Jan-03 12:30 UTC. Time now 2017-Jan-20 09:53 UTC.
Position N 30°16' E 121°55'.
Warning: this ship's position is 16 days out of date.

Type: Cargo ship. MMSI: 235414000.

Date/timePositionNaut miles runAvg speedWind from/ knotsBaromVisibWave heightAir tempDewpointWater temp
2017-Jan-03 12:30N 30°16' E 121°55'7 5.0
2017-Jan-03 11:03N 30°23' E 121°56'612.5
2017-Jan-03 10:33N 30°23' E 122°03'29 2.6
2017-Jan-02 23:25N 29°54' E 122°02'0 0.0
2017-Jan-02 20:33N 29°54' E 122°02'0 0.0
2017-Jan-02 19:08N 29°54' E 122°02'0 0.1
2017-Jan-02 18:34N 29°54' E 122°02'0 0.0
2017-Jan-02 16:28N 29°54' E 122°02'27 1.4
2017-Jan-01 21:05N 29°44' E 122°31'43511.9
2016-Dec-31 08:29N 22°51' E 119°58'1111.6
2016-Dec-31 07:33N 22°41' E 120°02'1111.3
2016-Dec-31 06:33N 22°33' E 120°11'8 7.8
2016-Dec-31 05:33N 22°33' E 120°19'0 0.0
2016-Dec-31 04:30N 22°33' E 120°19'0 0.0
2016-Dec-31 03:30N 22°33' E 120°19'0 0.0
2016-Dec-31 02:30N 22°33' E 120°19'0 0.0
2016-Dec-31 01:30N 22°33' E 120°19'0 0.0
2016-Dec-31 00:30N 22°33' E 120°19'0 0.0
2016-Dec-30 23:30N 22°33' E 120°19'0 0.0
2016-Dec-30 22:31N 22°33' E 120°19'0 0.0
2016-Dec-30 21:31N 22°33' E 120°19'0 0.0
2016-Dec-30 20:31N 22°33' E 120°19'0 0.0
2016-Dec-30 19:31N 22°33' E 120°19'0 0.0
2016-Dec-30 18:31N 22°33' E 120°19'0 0.0
2016-Dec-30 17:31N 22°33' E 120°19'0 0.0
2016-Dec-30 16:34N 22°33' E 120°19'0 0.0
2016-Dec-30 15:33N 22°33' E 120°19'0 0.0
2016-Dec-30 14:33N 22°33' E 120°19'0 0.0
2016-Dec-30 13:33N 22°33' E 120°19'0 0.0
2016-Dec-30 12:33N 22°33' E 120°19'0 0.2
2016-Dec-30 11:33N 22°33' E 120°19'3 2.8
2016-Dec-30 10:33N 22°32' E 120°16'2 2.0
2016-Dec-30 09:33N 22°31' E 120°15'0 0.1
2016-Dec-30 08:33N 22°31' E 120°15'0 0.0
2016-Dec-30 07:33N 22°31' E 120°15'0 0.0
2016-Dec-30 06:33N 22°31' E 120°15'0 0.0
2016-Dec-30 05:33N 22°31' E 120°15'0 0.0
2016-Dec-30 04:33N 22°31' E 120°15'2 2.0
2016-Dec-30 03:33N 22°31' E 120°13'1212.0
2016-Dec-30 02:34N 22°30' E 120°00'1313.5
2016-Dec-30 01:34N 22°29' E 119°46'313 8.2
2016-Dec-28 11:12N 22°20' E 114°07'69313.4
2016-Dec-26 07:25N 31°05' E 122°33'8 9.3
2016-Dec-26 06:34N 31°06' E 122°23'1413.8
2016-Dec-26 05:34N 31°12' E 122°09'1514.9
2016-Dec-26 04:34N 31°16' E 121°52'1212.2
2016-Dec-26 03:33N 31°21' E 121°39'4 4.1
2016-Dec-26 02:33N 31°23' E 121°35'0 0.0
2016-Dec-26 01:33N 31°23' E 121°35'0 0.0
2016-Dec-26 00:33N 31°23' E 121°35'0 0.0
2016-Dec-25 23:33N 31°23' E 121°35'0 0.0
2016-Dec-25 22:30N 31°23' E 121°35'0 0.0
2016-Dec-25 21:33N 31°23' E 121°35'0 0.0
2016-Dec-25 20:33N 31°23' E 121°35'0 0.0
2016-Dec-25 19:33N 31°23' E 121°35'0 0.0
2016-Dec-25 18:33N 31°23' E 121°35'0 0.0
2016-Dec-25 17:33N 31°23' E 121°35'0 0.0
2016-Dec-25 16:33N 31°23' E 121°35'0 0.0
2016-Dec-25 15:33N 31°23' E 121°35'0 0.1
2016-Dec-25 14:33N 31°23' E 121°35'2 2.1
2016-Dec-25 13:33N 31°22' E 121°37'9 9.2
2016-Dec-25 12:33N 31°18' E 121°47'1010.0
2016-Dec-25 11:33N 31°15' E 121°58'1010.1
2016-Dec-25 10:33N 31°12' E 122°09'9 9.2
2016-Dec-25 09:32N 31°06' E 122°18'8 7.9
2016-Dec-25 08:33N 31°07' E 122°27'  
Track history (hours):
 
Tides and Currents Weather Stations Pressure Air Temp Water Temp Dewpoint Dewpoint Depression Visibility Wind Speed Wind Dir Waves Ship Positions

Hatsu Envoy

Last reported at 2017-Jan-03 12:30 UTC. Time now 2017-Jan-20 09:53 UTC.
Position N 30°16' E 121°55'.
Warning: this ship's position is 16 days out of date.

Type: Cargo ship. MMSI: 235414000.

Date/timePositionNaut miles runAvg speedWind from/ knotsBaromVisibWave heightAir tempDewpointWater temp
2017-Jan-03 12:30N 30°16' E 121°55'7 5.0
2017-Jan-03 11:03N 30°23' E 121°56'612.5
2017-Jan-03 10:33N 30°23' E 122°03'29 2.6
2017-Jan-02 23:25N 29°54' E 122°02'0 0.0
2017-Jan-02 20:33N 29°54' E 122°02'0 0.0
2017-Jan-02 19:08N 29°54' E 122°02'0 0.1
2017-Jan-02 18:34N 29°54' E 122°02'0 0.0
2017-Jan-02 16:28N 29°54' E 122°02'27 1.4
2017-Jan-01 21:05N 29°44' E 122°31'43511.9
2016-Dec-31 08:29N 22°51' E 119°58'1111.6
2016-Dec-31 07:33N 22°41' E 120°02'1111.3
2016-Dec-31 06:33N 22°33' E 120°11'8 7.8
2016-Dec-31 05:33N 22°33' E 120°19'0 0.0
2016-Dec-31 04:30N 22°33' E 120°19'0 0.0
2016-Dec-31 03:30N 22°33' E 120°19'0 0.0
2016-Dec-31 02:30N 22°33' E 120°19'0 0.0
2016-Dec-31 01:30N 22°33' E 120°19'0 0.0
2016-Dec-31 00:30N 22°33' E 120°19'0 0.0
2016-Dec-30 23:30N 22°33' E 120°19'0 0.0
2016-Dec-30 22:31N 22°33' E 120°19'0 0.0
2016-Dec-30 21:31N 22°33' E 120°19'0 0.0
2016-Dec-30 20:31N 22°33' E 120°19'0 0.0
2016-Dec-30 19:31N 22°33' E 120°19'0 0.0
2016-Dec-30 18:31N 22°33' E 120°19'0 0.0
2016-Dec-30 17:31N 22°33' E 120°19'0 0.0
2016-Dec-30 16:34N 22°33' E 120°19'0 0.0
2016-Dec-30 15:33N 22°33' E 120°19'0 0.0
2016-Dec-30 14:33N 22°33' E 120°19'0 0.0
2016-Dec-30 13:33N 22°33' E 120°19'0 0.0
2016-Dec-30 12:33N 22°33' E 120°19'0 0.2
2016-Dec-30 11:33N 22°33' E 120°19'3 2.8
2016-Dec-30 10:33N 22°32' E 120°16'2 2.0
2016-Dec-30 09:33N 22°31' E 120°15'0 0.1
2016-Dec-30 08:33N 22°31' E 120°15'0 0.0
2016-Dec-30 07:33N 22°31' E 120°15'0 0.0
2016-Dec-30 06:33N 22°31' E 120°15'0 0.0
2016-Dec-30 05:33N 22°31' E 120°15'0 0.0
2016-Dec-30 04:33N 22°31' E 120°15'2 2.0
2016-Dec-30 03:33N 22°31' E 120°13'1212.0
2016-Dec-30 02:34N 22°30' E 120°00'1313.5
2016-Dec-30 01:34N 22°29' E 119°46'313 8.2
2016-Dec-28 11:12N 22°20' E 114°07'69313.4
2016-Dec-26 07:25N 31°05' E 122°33'8 9.3
2016-Dec-26 06:34N 31°06' E 122°23'1413.8
2016-Dec-26 05:34N 31°12' E 122°09'1514.9
2016-Dec-26 04:34N 31°16' E 121°52'1212.2
2016-Dec-26 03:33N 31°21' E 121°39'4 4.1
2016-Dec-26 02:33N 31°23' E 121°35'0 0.0
2016-Dec-26 01:33N 31°23' E 121°35'0 0.0
2016-Dec-26 00:33N 31°23' E 121°35'0 0.0
2016-Dec-25 23:33N 31°23' E 121°35'0 0.0
2016-Dec-25 22:30N 31°23' E 121°35'0 0.0
2016-Dec-25 21:33N 31°23' E 121°35'0 0.0
2016-Dec-25 20:33N 31°23' E 121°35'0 0.0
2016-Dec-25 19:33N 31°23' E 121°35'0 0.0
2016-Dec-25 18:33N 31°23' E 121°35'0 0.0
2016-Dec-25 17:33N 31°23' E 121°35'0 0.0
2016-Dec-25 16:33N 31°23' E 121°35'0 0.0
2016-Dec-25 15:33N 31°23' E 121°35'0 0.1
2016-Dec-25 14:33N 31°23' E 121°35'2 2.1
2016-Dec-25 13:33N 31°22' E 121°37'9 9.2
2016-Dec-25 12:33N 31°18' E 121°47'1010.0
2016-Dec-25 11:33N 31°15' E 121°58'1010.1
2016-Dec-25 10:33N 31°12' E 122°09'9 9.2
2016-Dec-25 09:32N 31°06' E 122°18'8 7.9
2016-Dec-25 08:33N 31°07' E 122°27'  

Dump ship's entire track history